Date,TemperatureHighF,TemperatureAvgF,TemperatureLowF,DewpointHighF,DewpointAvgF,DewpointLowF,HumidityHigh,HumidityAvg,HumidityLow,PressureMaxIn,PressureMinIn,WindSpeedMaxMPH,WindSpeedAvgMPH,GustSpeedMaxMPH,PrecipitationSumIn
2012-12-1,66.4,45.2,30.4,41.7,35.2,28.1,94,71,38,30.37,30.25,5,0,5,0.00
2012-12-2,68.3,50.3,34.1,49.1,42.3,32.6,97,77,48,30.33,30.15,11,1,19,0.00
2012-12-3,74.2,62.4,53.2,52.3,49.8,47.9,84,65,44,30.23,30.12,6,0,7,0.00
2012-12-4,71.6,57.8,43.5,50.6,46.8,42.3,98,70,39,30.23,30.06,14,1,15,0.00
2012-12-5,62.7,55.8,41.9,52.1,38.8,22.7,86,56,27,30.17,30.02,13,2,13,0.00
2012-12-6,47.3,40.4,29.7,31.5,27.9,25.9,87,62,46,30.32,30.17,4,0,7,0.00
2012-12-7,50.4,46.0,43.3,47.4,39.2,31.0,100,78,61,30.18,29.96,3,0,3,0.05
2012-12-8,65.2,53.1,47.4,51.5,49.2,45.7,100,88,60,29.98,29.88,5,0,8,0.00
2012-12-9,60.1,55.2,46.2,58.2,54.5,44.8,100,97,86,30.06,29.91,4,0,5,0.02
2012-12-10,62.4,59.4,54.5,60.8,57.3,54.5,100,93,81,29.91,29.57,10,1,12,0.01
2012-12-11,61.8,46.9,38.6,55.7,33.5,25.8,81,60,47,30.14,29.60,19,3,19,0.02
2012-12-12,47.7,41.9,38.3,29.0,27.3,25.4,65,56,46,30.32,30.14,7,1,10,0.00
2012-12-13,53.1,40.6,28.4,27.1,21.9,16.2,75,49,26,30.40,30.29,11,0,11,0.00
2012-12-14,64.3,38.4,21.3,26.7,22.7,17.9,90,59,20,30.35,30.18,3,0,5,0.00
2012-12-15,59.8,43.2,30.3,32.6,27.2,23.8,84,58,27,30.23,30.01,6,0,6,0.00
2012-12-16,50.5,46.8,41.8,49.4,42.7,27.7,98,87,45,30.02,29.82,9,1,10,0.19
2012-12-17,55.4,51.9,46.5,55.1,51.1,46.5,100,97,91,29.85,29.56,10,1,11,0.02
2012-12-18,56.2,49.7,38.6,52.7,39.6,27.1,98,71,40,29.85,29.57,18,2,23,0.00
2012-12-19,64.8,51.4,40.6,35.6,29.7,24.5,72,45,25,30.08,29.80,11,2,14,0.00
2012-12-20,46.1,41.2,35.0,46.0,36.2,31.1,100,83,66,30.12,29.42,9,0,10,0.55
2012-12-21,46.4,38.8,35.0,46.4,23.6,17.1,100,55,42,29.77,29.42,20,5,26,0.01
2012-12-22,48.5,38.4,30.0,20.0,16.5,9.1,61,42,20,30.07,29.76,28,6,33,0.00
2012-12-23,48.3,32.3,23.0,23.4,17.7,13.5,80,57,26,30.09,29.95,10,1,11,0.00
2012-12-24,44.5,41.1,37.2,43.6,36.6,19.9,100,86,38,29.97,29.83,4,0,9,0.65
2012-12-25,53.6,42.9,34.4,48.9,40.2,34.4,100,91,64,30.08,29.86,6,0,7,0.01
2012-12-26,42.3,37.7,34.7,39.2,36.6,33.8,99,96,86,30.06,29.49,11,2,17,1.15
2012-12-27,42.2,36.8,28.4,34.6,26.1,21.9,95,66,52,30.08,29.55,21,4,25,0.01
2012-12-28,40.5,33.5,27.3,28.2,24.7,21.6,82,71,53,30.15,29.94,10,0,12,0.00
2012-12-29,49.4,38.7,32.5,37.2,30.0,21.0,98,73,48,29.95,29.61,27,3,27,0.07
2012-12-30,43.3,35.7,28.8,21.5,16.8,13.0,61,46,29,30.35,29.93,20,3,20,0.00
2012-12-31,44.2,35.6,24.5,26.4,21.3,16.6,80,57,41,30.34,30.04,6,0,7,0.00